Time;durP1;ratioP1;P1;durP2;ratioP2;P2;SDS_P1;SDS_P2;PMS_P1;PMS_P2;Temp;Humidity;BMP_temperature;BMP_pressure;BME280_temperature;BME280_humidity;BME280_pressure;Samples;Min_cycle;Max_cycle;Signal;HPM_P1;HPM_P2
2022/01/31 00:01:40;;;;;;;;;5.00;4.25;;;;;;;;5088153;27;45334;-71
2022/01/31 00:04:06;;;;;;;;;5.00;3.00;;;;;;;;5077631;27;45340;-71
2022/01/31 00:06:31;;;;;;;;;6.00;6.00;;;;;;;;5076771;27;45428;-71
2022/01/31 00:08:56;;;;;;;;;5.00;5.00;;;;;;;;5074863;28;45449;-71
2022/01/31 00:11:22;;;;;;;;;4.25;4.25;;;;;;;;5073429;28;45573;-72
2022/01/31 00:13:57;;;;;;;;;6.50;5.50;;;;;;;;5075743;27;45661;-71
2022/01/31 00:16:25;;;;;;;;;6.00;4.50;;;;;;;;5072880;28;45450;-71
2022/01/31 00:18:50;;;;;;;;;2.50;2.25;;;;;;;;5074078;28;45379;-71
2022/01/31 00:21:15;;;;;;;;;6.50;5.00;;;;;;;;5074598;28;45276;-72
2022/01/31 00:23:41;;;;;;;;;5.50;4.25;;;;;;;;5077498;27;45344;-71
2022/01/31 00:26:06;;;;;;;;;5.75;5.00;;;;;;;;5075256;27;45475;-71
2022/01/31 00:28:31;;;;;;;;;10.00;6.25;;;;;;;;5057552;28;47364;-72
2022/01/31 00:30:56;;;;;;;;;4.25;4.25;;;;;;;;5075908;27;45398;-71
2022/01/31 00:33:21;;;;;;;;;5.50;4.00;;;;;;;;5074670;27;45507;-71
2022/01/31 00:35:46;;;;;;;;;7.50;5.00;;;;;;;;5074615;27;45574;-71
2022/01/31 00:38:12;;;;;;;;;8.00;5.50;;;;;;;;5074668;27;46287;-71
2022/01/31 00:40:41;;;;;;;;;6.00;3.75;;;;;;;;5074036;28;45464;-71
2022/01/31 00:43:10;;;;;;;;;4.50;4.50;;;;;;;;5075289;28;45336;-71
2022/01/31 00:45:43;;;;;;;;;3.25;3.00;;;;;;;;5076006;27;45467;-71
2022/01/31 00:48:15;;;;;;;;;6.50;5.25;;;;;;;;5078187;27;48493;-71
2022/01/31 00:50:41;;;;;;;;;2.75;2.75;;;;;;;;5072760;27;45289;-71
2022/01/31 00:53:07;;;;;;;;;7.00;5.00;;;;;;;;5057600;28;46810;-71
2022/01/31 00:55:32;;;;;;;;;5.75;4.75;;;;;;;;5074626;28;45279;-72
2022/01/31 00:57:57;;;;;;;;;4.25;3.00;;;;;;;;5086673;27;45464;-71
2022/01/31 01:00:22;;;;;;;;;4.25;3.50;;;;;;;;5077585;27;45395;-71
2022/01/31 01:02:48;;;;;;;;;6.25;4.00;;;;;;;;5074319;28;45403;-71
2022/01/31 01:05:13;;;;;;;;;5.25;4.00;;;;;;;;5074236;27;45340;-71
2022/01/31 01:07:39;;;;;;;;;4.25;4.25;;;;;;;;5073373;28;46381;-71
2022/01/31 01:10:05;;;;;;;;;3.75;3.50;;;;;;;;5075600;28;45450;-71
2022/01/31 01:12:30;;;;;;;;;6.25;4.75;;;;;;;;5073627;27;45352;-71
2022/01/31 01:14:56;;;;;;;;;4.00;4.00;;;;;;;;5073789;28;45286;-71
2022/01/31 01:17:21;;;;;;;;;6.00;4.00;;;;;;;;5074255;27;45666;-72
2022/01/31 01:19:46;;;;;;;;;5.75;5.75;;;;;;;;5082391;27;45537;-72
2022/01/31 01:22:11;;;;;;;;;8.50;3.50;;;;;;;;5091020;27;45391;-71
2022/01/31 01:24:37;;;;;;;;;6.00;5.50;;;;;;;;5076206;27;45510;-72
2022/01/31 01:27:02;;;;;;;;;4.00;4.00;;;;;;;;5074528;27;45464;-71
2022/01/31 01:29:27;;;;;;;;;7.75;4.75;;;;;;;;5087166;27;45371;-71
2022/01/31 01:31:53;;;;;;;;;4.75;3.75;;;;;;;;5074760;27;45571;-72
2022/01/31 01:34:20;;;;;;;;;7.50;5.25;;;;;;;;5076056;28;45415;-71
2022/01/31 01:36:46;;;;;;;;;4.50;4.50;;;;;;;;5073645;28;46532;-71
2022/01/31 01:39:12;;;;;;;;;4.50;4.50;;;;;;;;5073193;28;45423;-71
2022/01/31 01:41:37;;;;;;;;;6.00;5.25;;;;;;;;5073421;28;45442;-72
2022/01/31 01:44:03;;;;;;;;;5.75;4.25;;;;;;;;5072206;28;45558;-71
2022/01/31 01:46:28;;;;;;;;;3.50;3.50;;;;;;;;5075352;27;45976;-71
2022/01/31 01:48:53;;;;;;;;;5.25;4.75;;;;;;;;5074110;28;45565;-71
2022/01/31 01:51:18;;;;;;;;;7.50;5.00;;;;;;;;5073238;28;45434;-71
2022/01/31 01:53:44;;;;;;;;;7.50;5.75;;;;;;;;5076100;27;45428;-71
2022/01/31 01:56:09;;;;;;;;;9.00;6.50;;;;;;;;5071915;28;46213;-72
2022/01/31 01:58:40;;;;;;;;;4.75;3.50;;;;;;;;5073943;27;45409;-71
2022/01/31 02:01:05;;;;;;;;;4.00;4.00;;;;;;;;5074223;28;45382;-71
2022/01/31 02:03:31;;;;;;;;;5.50;4.00;;;;;;;;5072126;28;45536;-71
2022/01/31 02:05:57;;;;;;;;;7.00;4.75;;;;;;;;5073796;27;46291;-72
2022/01/31 02:08:23;;;;;;;;;7.00;4.00;;;;;;;;5072556;28;45812;-72
2022/01/31 02:10:48;;;;;;;;;3.00;3.00;;;;;;;;5075918;27;45391;-72
2022/01/31 02:13:17;;;;;;;;;7.50;5.75;;;;;;;;5075555;28;45377;-71
2022/01/31 02:15:50;;;;;;;;;4.75;4.00;;;;;;;;5085179;27;46536;-71
2022/01/31 02:18:17;;;;;;;;;5.00;4.00;;;;;;;;5078380;27;45565;-71
2022/01/31 02:20:43;;;;;;;;;5.25;4.00;;;;;;;;5073014;27;45439;-71
2022/01/31 02:23:09;;;;;;;;;4.50;4.00;;;;;;;;5073676;27;45545;-71
2022/01/31 02:25:51;;;;;;;;;4.50;3.75;;;;;;;;5088910;27;46102;-71
2022/01/31 02:28:16;;;;;;;;;7.50;5.00;;;;;;;;5078994;28;45220;-71
2022/01/31 02:30:42;;;;;;;;;5.00;5.00;;;;;;;;5077194;27;45283;-71
2022/01/31 02:33:08;;;;;;;;;5.00;4.00;;;;;;;;5076866;27;45526;-72
2022/01/31 02:35:35;;;;;;;;;5.25;4.00;;;;;;;;5076510;27;45515;-71
2022/01/31 02:38:00;;;;;;;;;4.50;3.75;;;;;;;;5076171;27;45456;-71
2022/01/31 02:40:25;;;;;;;;;7.25;6.00;;;;;;;;5078309;27;45497;-71
2022/01/31 02:42:51;;;;;;;;;4.75;3.00;;;;;;;;5077218;27;45227;-71
2022/01/31 02:45:16;;;;;;;;;5.50;4.00;;;;;;;;5077802;27;45615;-71
2022/01/31 02:47:50;;;;;;;;;7.75;5.00;;;;;;;;5075798;27;45485;-71
2022/01/31 02:50:15;;;;;;;;;7.00;4.00;;;;;;;;5076712;28;45695;-72
2022/01/31 02:52:46;;;;;;;;;8.00;5.00;;;;;;;;5075972;28;45382;-71
2022/01/31 02:55:12;;;;;;;;;7.75;5.00;;;;;;;;5078554;27;46513;-71
2022/01/31 02:57:37;;;;;;;;;3.25;3.25;;;;;;;;5078353;27;45492;-71
2022/01/31 03:00:03;;;;;;;;;4.50;3.50;;;;;;;;5079264;27;45473;-71
2022/01/31 03:02:28;;;;;;;;;3.25;2.25;;;;;;;;5079066;27;45499;-71
2022/01/31 03:04:53;;;;;;;;;4.75;4.00;;;;;;;;5079108;27;46862;-72
2022/01/31 03:07:18;;;;;;;;;4.00;3.00;;;;;;;;5073003;28;45317;-71
2022/01/31 03:09:43;;;;;;;;;6.00;4.00;;;;;;;;5064907;28;45496;-71
2022/01/31 03:12:09;;;;;;;;;2.75;2.00;;;;;;;;5045987;28;45480;-72
2022/01/31 03:14:34;;;;;;;;;4.00;3.25;;;;;;;;5070467;27;46394;-72
2022/01/31 03:17:04;;;;;;;;;7.00;4.50;;;;;;;;5057445;28;45450;-71
2022/01/31 03:19:29;;;;;;;;;4.00;3.25;;;;;;;;5077048;28;45373;-71
2022/01/31 03:21:54;;;;;;;;;5.50;5.00;;;;;;;;5064122;27;45769;-71
2022/01/31 03:24:19;;;;;;;;;4.00;3.50;;;;;;;;5072136;28;45451;-71
2022/01/31 03:26:44;;;;;;;;;4.00;4.00;;;;;;;;5076718;28;45295;-72
2022/01/31 03:29:10;;;;;;;;;5.25;3.25;;;;;;;;5074715;28;45272;-72
2022/01/31 03:31:35;;;;;;;;;5.00;5.00;;;;;;;;5075581;28;45345;-72
2022/01/31 03:34:01;;;;;;;;;6.50;3.50;;;;;;;;5075492;27;49514;-71
2022/01/31 03:36:26;;;;;;;;;4.25;3.00;;;;;;;;5075319;27;45371;-72
2022/01/31 03:38:51;;;;;;;;;9.00;4.50;;;;;;;;5073301;28;45200;-71
2022/01/31 03:41:18;;;;;;;;;5.00;4.00;;;;;;;;5074584;28;45422;-71
2022/01/31 03:43:43;;;;;;;;;3.50;3.25;;;;;;;;5077186;27;46716;-71
2022/01/31 03:46:09;;;;;;;;;5.00;5.00;;;;;;;;5077729;27;45413;-71
2022/01/31 03:48:34;;;;;;;;;5.00;3.00;;;;;;;;5074630;27;45470;-72
2022/01/31 03:51:00;;;;;;;;;4.00;4.00;;;;;;;;5072485;28;45591;-71
2022/01/31 03:53:26;;;;;;;;;5.25;3.75;;;;;;;;5074231;28;46777;-71
2022/01/31 03:55:51;;;;;;;;;3.00;3.00;;;;;;;;5075631;27;45573;-72
2022/01/31 03:58:16;;;;;;;;;3.00;3.00;;;;;;;;5077861;28;45413;-71
2022/01/31 04:00:42;;;;;;;;;3.75;3.75;;;;;;;;5073956;27;45430;-71
2022/01/31 04:03:08;;;;;;;;;4.00;2.00;;;;;;;;5075281;28;46778;-71
2022/01/31 04:05:33;;;;;;;;;4.25;3.00;;;;;;;;5074893;27;45391;-72
2022/01/31 04:07:58;;;;;;;;;2.75;2.75;;;;;;;;5084939;27;45397;-71
2022/01/31 04:10:24;;;;;;;;;5.00;3.00;;;;;;;;5076818;28;45519;-71
2022/01/31 04:12:49;;;;;;;;;5.00;4.00;;;;;;;;5073602;27;46486;-72
2022/01/31 04:15:14;;;;;;;;;3.00;3.00;;;;;;;;5073716;28;45344;-71
2022/01/31 04:17:40;;;;;;;;;3.25;3.25;;;;;;;;5074804;28;45760;-71
2022/01/31 04:20:07;;;;;;;;;4.00;3.25;;;;;;;;5072580;28;45338;-71
2022/01/31 04:22:35;;;;;;;;;2.75;2.00;;;;;;;;5076460;27;45458;-71
2022/01/31 04:25:03;;;;;;;;;2.50;2.00;;;;;;;;5076516;27;45318;-71
2022/01/31 04:27:32;;;;;;;;;3.50;3.00;;;;;;;;5073373;28;45485;-70
2022/01/31 04:29:58;;;;;;;;;1.75;1.75;;;;;;;;5075158;28;45494;-71
2022/01/31 04:32:23;;;;;;;;;3.00;2.00;;;;;;;;5074151;28;45966;-71
2022/01/31 04:34:48;;;;;;;;;3.50;3.50;;;;;;;;5073897;27;45503;-71
2022/01/31 04:37:14;;;;;;;;;2.00;2.00;;;;;;;;5076362;28;45336;-71
2022/01/31 04:39:40;;;;;;;;;2.00;1.75;;;;;;;;5074537;27;45504;-72
2022/01/31 04:42:06;;;;;;;;;3.00;3.00;;;;;;;;5075563;27;46485;-71
2022/01/31 04:44:31;;;;;;;;;4.25;3.00;;;;;;;;5074346;27;45534;-72
2022/01/31 04:46:56;;;;;;;;;3.75;3.75;;;;;;;;5072536;28;45486;-72
2022/01/31 04:49:22;;;;;;;;;3.25;3.25;;;;;;;;5076775;27;45346;-71
2022/01/31 04:51:48;;;;;;;;;10.25;3.75;;;;;;;;5074373;28;50663;-71
2022/01/31 04:54:13;;;;;;;;;3.00;3.00;;;;;;;;5074540;28;45608;-71
2022/01/31 04:56:41;;;;;;;;;2.50;2.50;;;;;;;;5072797;27;45393;-72
2022/01/31 04:59:06;;;;;;;;;2.25;2.25;;;;;;;;5073701;27;45358;-72
2022/01/31 05:01:31;;;;;;;;;2.25;2.25;;;;;;;;5074747;28;46144;-71
2022/01/31 05:03:57;;;;;;;;;3.50;3.50;;;;;;;;5074056;28;45304;-72
2022/01/31 05:06:29;;;;;;;;;2.75;2.75;;;;;;;;5071151;28;45258;-71
2022/01/31 05:08:54;;;;;;;;;4.75;3.00;;;;;;;;5074081;28;45451;-72
2022/01/31 05:11:19;;;;;;;;;3.25;3.25;;;;;;;;5072698;28;45349;-72
2022/01/31 05:13:46;;;;;;;;;3.00;3.00;;;;;;;;5073611;28;45283;-71
2022/01/31 05:16:11;;;;;;;;;3.00;3.00;;;;;;;;5087925;27;45510;-72
2022/01/31 05:18:36;;;;;;;;;4.50;2.75;;;;;;;;5075177;27;45707;-72
2022/01/31 05:21:03;;;;;;;;;3.25;2.75;;;;;;;;5077028;27;45597;-71
2022/01/31 05:23:29;;;;;;;;;2.00;2.00;;;;;;;;5071622;28;45276;-71
2022/01/31 05:25:54;;;;;;;;;3.00;3.00;;;;;;;;5073982;27;45335;-71
2022/01/31 05:28:20;;;;;;;;;1.75;1.75;;;;;;;;5076216;28;45648;-71
2022/01/31 05:30:45;;;;;;;;;3.00;3.00;;;;;;;;5071675;28;46553;-71
2022/01/31 05:33:10;;;;;;;;;2.50;1.50;;;;;;;;5072296;28;45519;-71
2022/01/31 05:35:35;;;;;;;;;3.00;3.00;;;;;;;;5073680;28;45533;-71
2022/01/31 05:38:01;;;;;;;;;3.50;2.00;;;;;;;;5073802;28;45366;-71
2022/01/31 05:40:28;;;;;;;;;2.00;2.00;;;;;;;;5075034;28;45470;-72
2022/01/31 05:42:53;;;;;;;;;2.00;2.00;;;;;;;;5074418;28;45721;-71
2022/01/31 05:45:18;;;;;;;;;3.25;2.00;;;;;;;;5071473;28;45565;-71
2022/01/31 05:47:43;;;;;;;;;3.25;3.25;;;;;;;;5072684;27;45485;-72
2022/01/31 05:50:09;;;;;;;;;2.00;1.75;;;;;;;;5072272;28;45466;-71
2022/01/31 05:52:34;;;;;;;;;2.25;2.25;;;;;;;;5082106;27;45397;-72
2022/01/31 05:55:00;;;;;;;;;3.00;2.00;;;;;;;;5072404;28;45517;-71
2022/01/31 05:57:25;;;;;;;;;4.00;2.00;;;;;;;;5073596;28;45576;-71
2022/01/31 05:59:51;;;;;;;;;3.00;3.00;;;;;;;;5072626;28;46457;-71
2022/01/31 06:02:16;;;;;;;;;3.25;2.50;;;;;;;;5083794;27;45361;-71
2022/01/31 06:04:44;;;;;;;;;2.75;2.00;;;;;;;;5073971;27;45366;-71
2022/01/31 06:07:09;;;;;;;;;1.00;1.00;;;;;;;;5076220;27;45301;-71
2022/01/31 06:09:36;;;;;;;;;1.75;1.00;;;;;;;;5074778;27;45669;-71
2022/01/31 06:12:03;;;;;;;;;4.50;2.25;;;;;;;;5072690;27;45452;-71
2022/01/31 06:14:28;;;;;;;;;2.50;2.50;;;;;;;;5074242;27;45443;-71
2022/01/31 06:16:54;;;;;;;;;4.75;2.00;;;;;;;;5071189;28;45462;-71
2022/01/31 06:19:19;;;;;;;;;2.00;2.00;;;;;;;;5081100;27;46357;-71
2022/01/31 06:21:44;;;;;;;;;2.00;2.00;;;;;;;;5073113;27;45401;-71
2022/01/31 06:24:10;;;;;;;;;2.00;2.00;;;;;;;;5071472;27;45300;-71
2022/01/31 06:26:38;;;;;;;;;4.25;2.00;;;;;;;;5072667;28;45280;-71
2022/01/31 06:29:04;;;;;;;;;3.00;3.00;;;;;;;;5055592;28;47311;-71
2022/01/31 06:31:30;;;;;;;;;2.00;2.00;;;;;;;;5073805;28;45426;-72
2022/01/31 06:33:56;;;;;;;;;3.00;2.00;;;;;;;;5072838;28;45485;-71
2022/01/31 06:36:24;;;;;;;;;2.00;2.00;;;;;;;;5072934;28;45419;-71
2022/01/31 06:38:49;;;;;;;;;2.00;2.00;;;;;;;;5072569;28;45381;-72
2022/01/31 06:41:17;;;;;;;;;2.00;2.00;;;;;;;;5073376;28;45433;-72
2022/01/31 06:43:43;;;;;;;;;4.00;4.00;;;;;;;;5072452;28;45322;-75
2022/01/31 06:46:08;;;;;;;;;1.25;1.25;;;;;;;;5081040;27;45276;-71
2022/01/31 06:48:33;;;;;;;;;2.00;2.00;;;;;;;;5072932;27;46504;-72
2022/01/31 06:50:58;;;;;;;;;1.75;1.75;;;;;;;;5071303;27;45511;-70
2022/01/31 06:53:27;;;;;;;;;1.00;1.00;;;;;;;;5073117;27;45367;-73
2022/01/31 06:55:53;;;;;;;;;3.00;2.00;;;;;;;;5038143;28;45543;-72
2022/01/31 06:58:18;;;;;;;;;1.50;1.50;;;;;;;;5070238;28;45356;-71
2022/01/31 07:00:44;;;;;;;;;5.50;2.00;;;;;;;;5066462;28;45453;-71
2022/01/31 07:03:12;;;;;;;;;2.00;2.00;;;;;;;;5070612;28;45451;-71
2022/01/31 07:05:38;;;;;;;;;4.00;2.75;;;;;;;;5068835;28;45473;-71
2022/01/31 07:08:03;;;;;;;;;3.00;2.25;;;;;;;;5067729;28;46275;-71
2022/01/31 07:10:28;;;;;;;;;2.00;2.00;;;;;;;;5073406;28;45371;-71
2022/01/31 07:12:56;;;;;;;;;2.50;2.00;;;;;;;;5075801;27;45216;-72
2022/01/31 07:15:21;;;;;;;;;1.00;1.00;;;;;;;;5075251;27;45522;-72
2022/01/31 07:17:46;;;;;;;;;1.50;1.50;;;;;;;;5074379;28;47577;-72
2022/01/31 07:20:20;;;;;;;;;2.00;2.00;;;;;;;;5075262;28;45475;-70
2022/01/31 07:22:52;;;;;;;;;1.00;1.00;;;;;;;;5076707;28;45339;-72
2022/01/31 07:25:34;;;;;;;;;2.00;2.00;;;;;;;;5077812;28;45556;-72
2022/01/31 07:27:59;;;;;;;;;1.75;1.75;;;;;;;;5076981;27;46544;-74
2022/01/31 07:30:24;;;;;;;;;2.00;1.00;;;;;;;;5074212;27;45432;-74
2022/01/31 07:32:50;;;;;;;;;3.00;1.50;;;;;;;;5075868;27;45281;-73
2022/01/31 07:35:15;;;;;;;;;2.75;1.75;;;;;;;;5076243;28;45438;-73
2022/01/31 07:37:40;;;;;;;;;1.25;1.25;;;;;;;;5075235;28;46508;-73
2022/01/31 07:40:06;;;;;;;;;1.00;1.00;;;;;;;;5076121;28;45473;-73
2022/01/31 07:42:31;;;;;;;;;4.00;2.00;;;;;;;;5073058;28;45290;-73
2022/01/31 07:44:56;;;;;;;;;1.25;1.25;;;;;;;;5073780;28;45269;-73
2022/01/31 07:47:22;;;;;;;;;4.75;2.00;;;;;;;;5075357;27;45443;-73
2022/01/31 07:49:47;;;;;;;;;1.75;1.75;;;;;;;;5075547;27;45456;-74
2022/01/31 07:52:12;;;;;;;;;6.00;1.50;;;;;;;;5077172;27;45360;-73
2022/01/31 07:54:38;;;;;;;;;2.50;2.00;;;;;;;;5075466;28;45400;-74
2022/01/31 07:57:04;;;;;;;;;1.50;1.50;;;;;;;;5074413;28;45632;-73
2022/01/31 07:59:29;;;;;;;;;3.00;3.00;;;;;;;;5075209;28;45449;-73
2022/01/31 08:01:54;;;;;;;;;1.00;1.00;;;;;;;;5085396;27;45476;-73
2022/01/31 08:04:19;;;;;;;;;1.50;1.50;;;;;;;;5077227;27;45487;-73
2022/01/31 08:06:44;;;;;;;;;1.00;1.00;;;;;;;;5075067;28;46567;-73
2022/01/31 08:09:09;;;;;;;;;1.75;1.75;;;;;;;;5075206;28;45729;-73
2022/01/31 08:11:35;;;;;;;;;4.50;3.00;;;;;;;;5072203;28;45474;-73
2022/01/31 08:14:05;;;;;;;;;3.00;1.25;;;;;;;;5073206;28;45530;-73
2022/01/31 08:16:31;;;;;;;;;1.75;1.75;;;;;;;;5083442;27;46353;-73
2022/01/31 08:18:56;;;;;;;;;3.00;1.00;;;;;;;;5074144;27;45471;-73
2022/01/31 08:21:23;;;;;;;;;0.75;0.75;;;;;;;;5073077;28;46073;-73
2022/01/31 08:23:48;;;;;;;;;1.00;1.00;;;;;;;;5074783;27;45570;-73
2022/01/31 08:26:17;;;;;;;;;2.00;2.00;;;;;;;;5074001;28;46050;-73
2022/01/31 08:28:49;;;;;;;;;4.50;1.50;;;;;;;;5074700;28;45846;-73
2022/01/31 08:31:18;;;;;;;;;3.50;2.75;;;;;;;;5076612;28;45375;-73
2022/01/31 08:33:50;;;;;;;;;1.00;1.00;;;;;;;;5074995;27;45426;-73
2022/01/31 08:36:16;;;;;;;;;4.00;1.25;;;;;;;;5073116;28;45787;-73
2022/01/31 08:38:42;;;;;;;;;2.25;2.25;;;;;;;;5073298;28;45787;-73
2022/01/31 08:41:08;;;;;;;;;2.67;2.00;;;;;;;;5055940;28;45431;-73
2022/01/31 08:43:34;;;;;;;;;2.25;1.00;;;;;;;;5075101;28;45481;-73
2022/01/31 08:46:00;;;;;;;;;1.00;1.00;;;;;;;;5076107;27;46119;-73
2022/01/31 08:48:26;;;;;;;;;1.00;1.00;;;;;;;;5074142;28;45493;-73
2022/01/31 08:50:53;;;;;;;;;1.25;1.25;;;;;;;;5075677;27;45383;-73
2022/01/31 08:53:18;;;;;;;;;2.00;0.67;;;;;;;;5074243;27;45435;-73
2022/01/31 08:55:47;;;;;;;;;1.75;1.00;;;;;;;;5074422;28;45533;-73
2022/01/31 08:58:12;;;;;;;;;1.50;1.00;;;;;;;;5075483;28;45317;-73
2022/01/31 09:00:37;;;;;;;;;1.00;1.00;;;;;;;;5072838;28;45618;-73
2022/01/31 09:05:38;;;;;;;;;1.67;1.67;;;;;;;;5082323;27;45363;-73
2022/01/31 09:08:04;;;;;;;;;1.00;1.00;;;;;;;;5072119;28;45437;-73
2022/01/31 09:10:29;;;;;;;;;2.00;1.00;;;;;;;;5081864;27;45553;-74
2022/01/31 09:12:54;;;;;;;;;2.25;2.25;;;;;;;;5073322;28;45685;-73
2022/01/31 09:15:19;;;;;;;;;1.00;1.00;;;;;;;;5074082;28;45414;-73
2022/01/31 09:17:45;;;;;;;;;2.50;1.25;;;;;;;;5073825;28;45435;-73
2022/01/31 09:20:10;;;;;;;;;1.00;1.00;;;;;;;;5074149;28;45546;-73
2022/01/31 09:22:35;;;;;;;;;4.00;1.00;;;;;;;;5073923;28;45332;-73
2022/01/31 09:25:01;;;;;;;;;1.00;1.00;;;;;;;;5075518;28;45453;-73
2022/01/31 09:27:27;;;;;;;;;2.00;0.75;;;;;;;;5074889;27;45451;-73
2022/01/31 09:29:53;;;;;;;;;1.00;1.00;;;;;;;;5072932;28;45330;-73
2022/01/31 09:32:22;;;;;;;;;0.75;0.25;;;;;;;;5076178;27;45308;-73
2022/01/31 09:34:48;;;;;;;;;2.75;2.75;;;;;;;;5073893;27;46451;-73
2022/01/31 09:37:13;;;;;;;;;1.00;1.00;;;;;;;;5043118;28;46123;-73
2022/01/31 09:39:38;;;;;;;;;0.50;0.50;;;;;;;;5073548;28;45399;-73
2022/01/31 09:42:05;;;;;;;;;1.75;1.00;;;;;;;;5069640;28;45454;-72
2022/01/31 09:44:45;;;;;;;;;0.25;0.25;;;;;;;;5064060;28;46319;-72
2022/01/31 09:47:21;;;;;;;;;2.33;1.00;;;;;;;;5072000;28;45513;-72
2022/01/31 09:49:46;;;;;;;;;4.75;0.50;;;;;;;;5076459;27;45522;-72
2022/01/31 09:52:11;;;;;;;;;1.00;1.00;;;;;;;;5076524;27;45371;-72
2022/01/31 09:54:37;;;;;;;;;1.75;1.50;;;;;;;;5072654;27;46218;-73
2022/01/31 09:57:02;;;;;;;;;1.50;1.00;;;;;;;;5075289;27;45457;-72
2022/01/31 09:59:28;;;;;;;;;4.00;2.00;;;;;;;;5072098;28;45485;-73
2022/01/31 10:01:54;;;;;;;;;1.00;1.00;;;;;;;;5072575;28;45425;-72
2022/01/31 10:04:24;;;;;;;;;0.50;0.00;;;;;;;;5071365;27;46352;-72
2022/01/31 10:06:50;;;;;;;;;2.00;1.00;;;;;;;;5071895;28;45395;-72
2022/01/31 10:09:19;;;;;;;;;1.75;1.00;;;;;;;;5073337;27;45519;-72
2022/01/31 10:11:51;;;;;;;;;1.00;1.00;;;;;;;;5073356;27;45365;-72
2022/01/31 10:17:26;;;;;;;;;2.25;1.75;;;;;;;;5072888;27;45797;-72
2022/01/31 10:19:53;;;;;;;;;2.00;1.00;;;;;;;;5073466;28;45324;-72
2022/01/31 10:22:19;;;;;;;;;1.00;1.00;;;;;;;;5074898;28;45474;-72
2022/01/31 10:24:46;;;;;;;;;1.00;1.00;;;;;;;;5071077;28;45372;-72
2022/01/31 10:27:13;;;;;;;;;1.25;0.25;;;;;;;;5071620;28;45521;-72
2022/01/31 10:29:40;;;;;;;;;2.00;2.00;;;;;;;;5054292;28;45745;-72
2022/01/31 10:32:05;;;;;;;;;1.75;0.00;;;;;;;;5071368;28;45584;-72
2022/01/31 10:34:32;;;;;;;;;1.00;1.00;;;;;;;;5074009;28;45368;-72
2022/01/31 10:37:01;;;;;;;;;1.00;1.00;;;;;;;;5072250;28;45510;-72
2022/01/31 10:50:52;;;;;;;;;2.75;1.00;;;;;;;;5074464;27;45394;-71
2022/01/31 10:53:17;;;;;;;;;1.00;1.00;;;;;;;;5076538;27;45415;-72
2022/01/31 10:55:52;;;;;;;;;4.00;2.00;;;;;;;;5076962;28;45371;-72
2022/01/31 10:58:19;;;;;;;;;3.25;1.00;;;;;;;;5078158;27;45450;-72
2022/01/31 11:00:44;;;;;;;;;1.75;0.00;;;;;;;;5074138;27;45280;-72
2022/01/31 11:03:32;;;;;;;;;3.00;1.50;;;;;;;;5073521;27;45482;-72
2022/01/31 11:05:59;;;;;;;;;1.00;1.00;;;;;;;;5075484;27;46449;-72
2022/01/31 11:08:25;;;;;;;;;3.25;1.25;;;;;;;;5087260;27;45343;-72
2022/01/31 11:10:56;;;;;;;;;2.25;1.25;;;;;;;;5090009;27;45555;-71
2022/01/31 11:13:21;;;;;;;;;1.75;0.75;;;;;;;;5073971;28;45626;-72
2022/01/31 11:15:46;;;;;;;;;1.00;1.00;;;;;;;;5079088;27;46605;-72
2022/01/31 11:18:13;;;;;;;;;4.00;2.00;;;;;;;;5074257;27;45457;-72
2022/01/31 11:20:41;;;;;;;;;3.25;1.75;;;;;;;;5073534;27;45444;-73
2022/01/31 11:23:06;;;;;;;;;2.33;1.00;;;;;;;;5073411;28;45525;-72
2022/01/31 11:25:32;;;;;;;;;1.00;1.00;;;;;;;;5085835;27;45577;-72
2022/01/31 11:27:58;;;;;;;;;0.00;0.00;;;;;;;;5075764;27;45345;-73
2022/01/31 11:30:23;;;;;;;;;2.67;1.67;;;;;;;;5074224;27;45602;-72
2022/01/31 11:32:49;;;;;;;;;2.67;0.67;;;;;;;;5076109;27;45450;-72
2022/01/31 11:35:15;;;;;;;;;0.75;0.75;;;;;;;;5076224;27;45581;-72
2022/01/31 11:37:40;;;;;;;;;0.00;0.00;;;;;;;;5075418;28;45448;-72
2022/01/31 11:40:09;;;;;;;;;1.00;1.00;;;;;;;;5077999;27;45426;-72
2022/01/31 11:42:34;;;;;;;;;2.00;1.00;;;;;;;;5077074;28;45217;-72
2022/01/31 11:45:00;;;;;;;;;0.00;0.00;;;;;;;;5076261;27;46615;-72
2022/01/31 11:47:27;;;;;;;;;4.67;1.00;;;;;;;;5074513;27;45600;-72
2022/01/31 11:49:58;;;;;;;;;1.75;1.25;;;;;;;;5058777;28;45303;-72
2022/01/31 11:52:24;;;;;;;;;0.50;0.50;;;;;;;;5074139;28;45514;-72
2022/01/31 11:54:49;;;;;;;;;1.00;1.00;;;;;;;;5074243;28;47281;-72
2022/01/31 11:57:17;;;;;;;;;1.00;1.00;;;;;;;;5074725;28;45372;-72
2022/01/31 11:59:42;;;;;;;;;0.50;0.50;;;;;;;;5062438;28;45367;-73
2022/01/31 12:02:12;;;;;;;;;1.00;1.00;;;;;;;;5073288;27;45554;-72
2022/01/31 12:04:41;;;;;;;;;1.00;1.00;;;;;;;;5076420;28;46795;-72
2022/01/31 12:07:36;;;;;;;;;2.00;2.00;;;;;;;;5075687;27;45360;-72
2022/01/31 12:10:02;;;;;;;;;0.33;0.33;;;;;;;;5069372;28;45437;-72
2022/01/31 12:13:10;;;;;;;;;3.00;1.00;;;;;;;;5082628;27;46587;-72
2022/01/31 12:15:31;;;;;;;;;0.75;0.75;;;;;;;;5078030;27;46705;-72
2022/01/31 12:18:21;;;;;;;;;2.50;1.00;;;;;;;;5073182;27;45739;-72
2022/01/31 12:23:34;;;;;;;;;0.67;0.67;;;;;;;;5073589;28;45455;-72
2022/01/31 12:25:59;;;;;;;;;0.25;0.25;;;;;;;;5074916;28;45592;-72
2022/01/31 12:28:38;;;;;;;;;1.50;1.25;;;;;;;;5076632;27;45345;-72
2022/01/31 12:31:23;;;;;;;;;1.67;1.67;;;;;;;;5076496;27;45304;-72
2022/01/31 12:33:48;;;;;;;;;0.00;0.00;;;;;;;;5072647;27;45439;-72
2022/01/31 12:36:25;;;;;;;;;1.00;1.00;;;;;;;;5074311;27;46430;-72
2022/01/31 12:38:50;;;;;;;;;1.00;1.00;;;;;;;;5073851;27;45503;-72
2022/01/31 12:41:29;;;;;;;;;1.00;1.00;;;;;;;;5088102;27;45435;-72
2022/01/31 12:43:56;;;;;;;;;2.00;1.00;;;;;;;;5058731;28;45364;-72
2022/01/31 12:46:21;;;;;;;;;1.00;1.00;;;;;;;;5072735;27;47267;-72
2022/01/31 12:49:06;;;;;;;;;3.00;0.00;;;;;;;;5074265;28;45404;-72
2022/01/31 12:51:52;;;;;;;;;1.75;1.00;;;;;;;;5075630;27;45508;-72
2022/01/31 12:54:21;;;;;;;;;1.50;1.50;;;;;;;;5073939;28;45652;-72
2022/01/31 12:56:46;;;;;;;;;0.00;0.00;;;;;;;;5079305;27;46087;-72
2022/01/31 12:59:13;;;;;;;;;0.25;0.25;;;;;;;;5071944;27;45299;-72
2022/01/31 13:01:41;;;;;;;;;0.33;0.33;;;;;;;;5074881;28;45424;-72
2022/01/31 13:04:08;;;;;;;;;0.00;0.00;;;;;;;;5074480;27;45311;-72
2022/01/31 13:06:33;;;;;;;;;0.50;0.50;;;;;;;;5071657;27;45526;-72
2022/01/31 13:09:01;;;;;;;;;0.25;0.25;;;;;;;;5073635;28;45421;-72
2022/01/31 13:11:26;;;;;;;;;1.00;1.00;;;;;;;;5072760;28;45380;-72
2022/01/31 13:14:00;;;;;;;;;0.75;0.75;;;;;;;;5073742;28;45237;-72
2022/01/31 13:16:25;;;;;;;;;2.00;1.00;;;;;;;;5071317;28;46034;-72
2022/01/31 13:18:51;;;;;;;;;1.00;1.00;;;;;;;;5079738;27;45567;-73
2022/01/31 13:21:17;;;;;;;;;1.25;1.00;;;;;;;;5078181;27;45507;-73
2022/01/31 13:23:43;;;;;;;;;3.00;0.67;;;;;;;;5073527;28;45509;-73
2022/01/31 13:26:09;;;;;;;;;4.00;1.00;;;;;;;;5076956;27;46351;-72
2022/01/31 13:28:35;;;;;;;;;2.00;1.00;;;;;;;;5074712;27;45571;-72
2022/01/31 13:31:07;;;;;;;;;0.67;0.67;;;;;;;;5075094;27;45450;-72
2022/01/31 13:33:42;;;;;;;;;2.00;1.00;;;;;;;;5075385;27;45399;-72
2022/01/31 13:36:07;;;;;;;;;1.75;1.00;;;;;;;;5072059;27;46379;-72
2022/01/31 13:38:33;;;;;;;;;2.00;0.00;;;;;;;;5073646;28;45412;-72
2022/01/31 13:40:58;;;;;;;;;2.25;1.00;;;;;;;;5072166;28;45392;-72
2022/01/31 13:43:29;;;;;;;;;1.75;1.00;;;;;;;;5075569;27;45439;-72
2022/01/31 13:48:59;;;;;;;;;0.50;0.00;;;;;;;;5072249;27;45414;-72
2022/01/31 13:51:30;;;;;;;;;2.00;1.00;;;;;;;;5073345;27;45433;-73
2022/01/31 13:53:55;;;;;;;;;1.50;1.00;;;;;;;;5073784;28;45439;-73
2022/01/31 13:56:21;;;;;;;;;1.00;1.00;;;;;;;;5071884;28;46125;-73
2022/01/31 13:58:56;;;;;;;;;1.50;0.75;;;;;;;;5072259;28;45984;-73
2022/01/31 14:01:22;;;;;;;;;1.00;1.00;;;;;;;;5075008;28;45292;-73
2022/01/31 14:03:47;;;;;;;;;4.00;0.00;;;;;;;;5072104;28;45321;-73
2022/01/31 14:06:15;;;;;;;;;2.00;0.75;;;;;;;;5072110;28;47218;-72
2022/01/31 14:08:44;;;;;;;;;0.00;0.00;;;;;;;;5072185;28;45823;-73
2022/01/31 14:11:15;;;;;;;;;1.50;1.50;;;;;;;;5073204;28;45485;-73
2022/01/31 14:13:51;;;;;;;;;3.00;0.50;;;;;;;;5072737;27;45481;-73
2022/01/31 14:16:25;;;;;;;;;0.50;0.25;;;;;;;;5056161;28;48540;-73
2022/01/31 14:18:52;;;;;;;;;1.25;0.25;;;;;;;;5071788;28;45465;-73
2022/01/31 14:21:18;;;;;;;;;1.00;1.00;;;;;;;;5074664;27;45490;-73
2022/01/31 14:23:44;;;;;;;;;1.00;0.00;;;;;;;;5073813;28;45552;-72
2022/01/31 14:26:12;;;;;;;;;0.00;0.00;;;;;;;;5071472;28;46239;-73
2022/01/31 14:28:38;;;;;;;;;2.00;1.00;;;;;;;;5073999;28;45364;-73
2022/01/31 14:31:04;;;;;;;;;4.00;1.00;;;;;;;;5072939;28;45375;-73
2022/01/31 14:33:31;;;;;;;;;1.00;0.50;;;;;;;;5070488;27;45604;-72
2022/01/31 14:36:06;;;;;;;;;1.75;0.00;;;;;;;;5071238;28;46315;-72
2022/01/31 14:38:39;;;;;;;;;0.00;0.00;;;;;;;;5063323;28;45393;-72
2022/01/31 14:41:19;;;;;;;;;1.25;1.00;;;;;;;;5071931;28;45443;-71
2022/01/31 14:49:15;;;;;;;;;1.00;1.00;;;;;;;;5073801;27;45394;-72
2022/01/31 14:51:41;;;;;;;;;1.00;1.00;;;;;;;;5071119;28;45697;-73
2022/01/31 14:54:08;;;;;;;;;2.00;0.00;;;;;;;;5072848;27;45617;-72
2022/01/31 14:56:33;;;;;;;;;0.50;0.50;;;;;;;;5073541;27;46396;-72
2022/01/31 14:58:59;;;;;;;;;1.25;1.00;;;;;;;;5071179;28;45420;-72
2022/01/31 15:01:25;;;;;;;;;1.50;1.00;;;;;;;;5075017;27;45283;-72
2022/01/31 15:03:50;;;;;;;;;0.75;0.75;;;;;;;;5073491;27;45565;-72
2022/01/31 15:06:16;;;;;;;;;0.00;0.00;;;;;;;;5072368;28;46069;-72
2022/01/31 15:08:41;;;;;;;;;1.00;1.00;;;;;;;;5071118;27;45338;-72
2022/01/31 15:11:09;;;;;;;;;1.50;1.00;;;;;;;;5083648;27;45377;-72